Time;durP1;ratioP1;P1;durP2;ratioP2;P2;SDS_P1;SDS_P2;PMS_P1;PMS_P2;Temp;Humidity;BMP_temperature;BMP_pressure;BME280_temperature;BME280_humidity;BME280_pressure;Samples;Min_cycle;Max_cycle;Signal;HPM_P1;HPM_P2
2021/07/19 00:01:44;;;;;;;0.40;0.30;;;;;;;20.20;100.00;100596.22;5061599;28;20556;-79
2021/07/19 00:04:12;;;;;;;0.67;0.67;;;;;;;20.34;99.35;100598.03;5023548;28;20431;-79
2021/07/19 00:06:38;;;;;;;0.40;0.20;;;;;;;20.13;100.00;100608.34;5068648;28;20861;-79
2021/07/19 00:09:05;;;;;;;0.40;0.20;;;;;;;19.84;100.00;100607.47;5068880;28;20449;-79
2021/07/19 00:11:34;;;;;;;1.53;1.53;;;;;;;19.66;100.00;100590.59;5035595;28;20466;-79
2021/07/19 00:14:01;;;;;;;0.43;0.30;;;;;;;19.71;100.00;100604.66;5024603;28;20439;-79
2021/07/19 00:16:28;;;;;;;0.40;0.20;;;;;;;19.72;100.00;100594.75;5052381;28;20471;-79
2021/07/19 00:18:55;;;;;;;0.40;0.27;;;;;;;19.39;100.00;100601.19;5025117;28;20451;-79
2021/07/19 00:21:21;;;;;;;0.40;0.20;;;;;;;19.70;100.00;100597.53;5043564;28;20495;-79
2021/07/19 00:23:48;;;;;;;0.83;0.83;;;;;;;19.46;100.00;100594.50;5054700;28;20472;-79
2021/07/19 00:26:15;;;;;;;0.60;0.60;;;;;;;19.35;100.00;100596.97;5035311;28;20443;-79
2021/07/19 00:28:41;;;;;;;1.57;1.43;;;;;;;19.37;100.00;100602.25;5063080;28;20860;-80
2021/07/19 00:31:08;;;;;;;0.40;0.30;;;;;;;19.43;100.00;100607.25;5027643;28;20484;-79
2021/07/19 00:33:36;;;;;;;0.40;0.20;;;;;;;19.30;100.00;100598.19;5031714;28;20441;-79
2021/07/19 00:36:03;;;;;;;0.40;0.30;;;;;;;19.31;100.00;100591.81;5035251;28;20460;-79
2021/07/19 00:38:30;;;;;;;0.40;0.20;;;;;;;19.23;100.00;100597.69;5064053;28;20444;-79
2021/07/19 00:40:56;;;;;;;0.40;0.20;;;;;;;19.17;100.00;100588.13;5028808;28;20861;-79
2021/07/19 00:43:23;;;;;;;0.40;0.20;;;;;;;19.18;100.00;100589.84;5042227;28;20443;-79
2021/07/19 00:45:50;;;;;;;0.97;0.97;;;;;;;19.06;100.00;100596.00;5026964;28;20447;-79
2021/07/19 00:48:18;;;;;;;0.53;0.53;;;;;;;18.97;100.00;100588.44;5040154;28;20444;-79
2021/07/19 00:50:45;;;;;;;0.40;0.30;;;;;;;19.10;100.00;100594.84;5056163;28;20541;-79
2021/07/19 00:53:12;;;;;;;0.40;0.20;;;;;;;19.00;100.00;100577.47;5031594;28;20510;-79
2021/07/19 00:55:42;;;;;;;0.40;0.20;;;;;;;19.03;100.00;100596.16;5026312;28;20462;-79
2021/07/19 00:58:10;;;;;;;1.33;1.33;;;;;;;19.04;100.00;100587.09;5029672;28;20452;-79
2021/07/19 01:00:44;;;;;;;0.40;0.20;;;;;;;18.94;100.00;100597.56;5070511;28;20499;-79
2021/07/19 01:03:11;;;;;;;0.80;0.80;;;;;;;19.02;100.00;100597.13;5028209;28;20436;-79
2021/07/19 01:05:42;;;;;;;0.40;0.20;;;;;;;19.08;100.00;100595.91;5039380;28;20526;-79
2021/07/19 01:08:08;;;;;;;0.40;0.20;;;;;;;19.10;100.00;100592.16;5027240;28;20455;-79
2021/07/19 01:10:36;;;;;;;0.40;0.20;;;;;;;18.90;100.00;100579.84;5033289;28;20457;-79
2021/07/19 01:13:05;;;;;;;0.40;0.20;;;;;;;18.91;100.00;100594.16;5032572;28;20455;-79
2021/07/19 01:15:35;;;;;;;0.40;0.30;;;;;;;18.84;100.00;100585.59;5025667;28;20463;-79
2021/07/19 01:18:03;;;;;;;0.40;0.20;;;;;;;18.59;100.00;100586.09;5038336;28;20436;-79
2021/07/19 01:20:38;;;;;;;0.40;0.30;;;;;;;18.84;100.00;100599.06;5058654;28;20498;-79
2021/07/19 01:23:36;;;;;;;0.40;0.20;;;;;;;18.68;100.00;100595.53;5021837;28;20455;-79
2021/07/19 01:26:02;;;;;;;0.40;0.30;;;;;;;18.77;100.00;100591.41;5026769;28;20849;-79
2021/07/19 01:28:44;;;;;;;0.40;0.20;;;;;;;18.44;100.00;100588.78;5030505;28;20472;-79
2021/07/19 01:31:35;;;;;;;0.40;0.20;;;;;;;18.56;100.00;100588.09;5063737;28;20521;-79
2021/07/19 01:34:08;;;;;;;0.40;0.20;;;;;;;18.50;100.00;100583.94;5028884;28;21008;-79
2021/07/19 01:36:44;;;;;;;0.40;0.30;;;;;;;18.40;100.00;100579.16;5053760;28;20471;-79
2021/07/19 01:39:11;;;;;;;0.40;0.20;;;;;;;18.29;100.00;100577.06;5025327;28;20829;-79
2021/07/19 01:41:38;;;;;;;0.50;0.33;;;;;;;18.25;100.00;100576.38;5028873;28;20489;-79
2021/07/19 01:44:06;;;;;;;0.40;0.30;;;;;;;18.29;100.00;100575.25;5030448;28;20808;-79
2021/07/19 01:46:34;;;;;;;1.13;1.03;;;;;;;18.15;100.00;100582.34;5059583;28;20439;-79
2021/07/19 01:49:03;;;;;;;0.40;0.20;;;;;;;18.44;100.00;100578.03;5024943;28;20459;-79
2021/07/19 01:51:30;;;;;;;0.40;0.20;;;;;;;18.37;100.00;100568.56;5035224;28;20456;-79
2021/07/19 01:53:59;;;;;;;0.77;0.77;;;;;;;18.33;100.00;100573.25;5025524;28;20460;-79
2021/07/19 01:56:27;;;;;;;0.40;0.20;;;;;;;18.32;100.00;100569.69;5069923;28;20433;-79
2021/07/19 01:58:56;;;;;;;0.40;0.20;;;;;;;18.27;100.00;100571.78;5042451;28;20444;-78
2021/07/19 02:01:24;;;;;;;1.73;1.40;;;;;;;18.32;100.00;100574.19;5034405;28;20484;-79
2021/07/19 02:03:51;;;;;;;0.40;0.20;;;;;;;18.17;100.00;100565.16;5032606;28;20949;-79
2021/07/19 02:06:18;;;;;;;0.40;0.30;;;;;;;17.82;100.00;100567.09;5062638;28;20451;-79
2021/07/19 02:08:49;;;;;;;0.57;0.57;;;;;;;17.84;100.00;100575.09;5034463;28;20456;-80
2021/07/19 02:11:18;;;;;;;0.40;0.20;;;;;;;18.03;100.00;100570.44;5029852;28;20468;-80
2021/07/19 02:13:46;;;;;;;0.40;0.20;;;;;;;18.16;100.00;100565.25;5024541;28;20452;-80
2021/07/19 02:16:13;;;;;;;0.60;0.60;;;;;;;18.03;100.00;100568.63;5038049;28;20475;-79
2021/07/19 02:18:41;;;;;;;56.70;2.57;;;;;;;18.06;100.00;100573.81;5032512;28;20469;-79
2021/07/19 02:21:08;;;;;;;1.40;1.40;;;;;;;18.04;100.00;100577.56;5030579;28;20489;-79
2021/07/19 02:23:37;;;;;;;0.70;0.70;;;;;;;17.86;100.00;100584.81;5018826;28;20473;-79
2021/07/19 02:26:05;;;;;;;0.40;0.20;;;;;;;17.54;100.00;100577.53;5063533;28;20581;-79
2021/07/19 02:28:34;;;;;;;0.40;0.20;;;;;;;17.57;100.00;100583.66;5025804;28;20501;-79
2021/07/19 02:31:05;;;;;;;0.40;0.20;;;;;;;17.84;100.00;100586.72;5023406;28;20530;-79
2021/07/19 02:33:35;;;;;;;0.40;0.20;;;;;;;17.37;100.00;100581.97;5030058;28;20437;-79
2021/07/19 02:36:04;;;;;;;0.50;0.50;;;;;;;17.61;100.00;100584.34;5049969;28;20464;-79
2021/07/19 02:38:31;;;;;;;2.10;1.27;;;;;;;17.68;100.00;100575.91;5027431;28;20479;-79
2021/07/19 02:40:59;;;;;;;0.40;0.20;;;;;;;17.64;100.00;100589.53;5029402;28;20816;-79
2021/07/19 02:43:27;;;;;;;0.40;0.20;;;;;;;17.86;100.00;100583.94;5057018;28;20459;-79
2021/07/19 02:45:55;;;;;;;0.40;0.27;;;;;;;17.94;100.00;100587.94;5021492;28;20452;-79
2021/07/19 02:48:27;;;;;;;0.40;0.20;;;;;;;18.01;100.00;100592.03;5025643;28;20461;-79
2021/07/19 02:50:56;;;;;;;0.50;0.47;;;;;;;17.94;100.00;100587.06;5030436;28;20500;-79
2021/07/19 02:53:25;;;;;;;0.40;0.30;;;;;;;17.67;100.00;100582.19;5025560;28;20449;-79
2021/07/19 02:55:55;;;;;;;4.67;1.37;;;;;;;17.81;100.00;100588.69;5065607;28;20426;-80
2021/07/19 02:58:22;;;;;;;0.40;0.20;;;;;;;17.68;100.00;100592.06;5034631;28;20451;-79
2021/07/19 03:00:49;;;;;;;0.80;0.77;;;;;;;17.61;100.00;100585.22;5021219;28;20495;-79
2021/07/19 03:03:24;;;;;;;0.50;0.50;;;;;;;17.16;100.00;100585.78;5023507;28;20968;-79
2021/07/19 03:05:59;;;;;;;0.43;0.27;;;;;;;17.24;100.00;100588.94;5034398;28;20452;-80
2021/07/19 03:08:32;;;;;;;0.40;0.20;;;;;;;17.30;100.00;100585.09;5027921;28;20431;-79
2021/07/19 03:11:01;;;;;;;0.80;0.80;;;;;;;17.38;100.00;100583.72;5023453;28;20514;-79
2021/07/19 03:13:30;;;;;;;0.50;0.30;;;;;;;17.19;100.00;100593.69;5021382;28;20452;-79
2021/07/19 03:15:58;;;;;;;0.40;0.20;;;;;;;17.06;100.00;100582.69;5034732;28;20507;-79
2021/07/19 03:18:26;;;;;;;0.40;0.20;;;;;;;16.99;100.00;100581.25;5067680;28;20789;-79
2021/07/19 03:20:54;;;;;;;0.40;0.20;;;;;;;16.88;100.00;100579.13;5045610;28;20494;-79
2021/07/19 03:23:24;;;;;;;0.40;0.20;;;;;;;17.01;100.00;100573.16;5031018;28;20531;-79
2021/07/19 03:25:53;;;;;;;0.83;0.83;;;;;;;16.77;100.00;100581.47;5028008;28;20432;-79
2021/07/19 03:28:20;;;;;;;0.40;0.20;;;;;;;16.64;100.00;100582.97;5021014;28;20509;-79
2021/07/19 03:30:48;;;;;;;0.40;0.20;;;;;;;16.76;100.00;100585.09;5035489;28;20460;-79
2021/07/19 03:33:16;;;;;;;0.60;0.53;;;;;;;16.66;100.00;100589.13;5020696;28;21004;-79
2021/07/19 03:35:43;;;;;;;0.77;0.77;;;;;;;16.84;100.00;100590.06;5021935;28;20440;-79
2021/07/19 03:38:14;;;;;;;0.50;0.40;;;;;;;16.77;100.00;100591.34;5028308;28;20495;-79
2021/07/19 03:40:41;;;;;;;0.40;0.20;;;;;;;16.92;100.00;100589.72;5055122;28;20530;-79
2021/07/19 03:43:09;;;;;;;0.40;0.30;;;;;;;17.07;100.00;100597.84;5031206;28;20444;-80
2021/07/19 03:45:36;;;;;;;0.40;0.20;;;;;;;17.03;100.00;100598.97;5050948;28;20459;-80
2021/07/19 03:48:04;;;;;;;0.40;0.20;;;;;;;16.83;100.00;100602.63;5055626;28;20448;-80
2021/07/19 03:50:37;;;;;;;4.30;0.60;;;;;;;16.94;100.00;100599.41;5020876;28;20453;-80
2021/07/19 03:53:06;;;;;;;0.67;0.67;;;;;;;16.92;100.00;100598.63;5059482;28;20452;-80
2021/07/19 03:55:33;;;;;;;0.40;0.30;;;;;;;16.88;100.00;100608.66;5027056;28;20436;-80
2021/07/19 03:58:00;;;;;;;0.40;0.20;;;;;;;16.78;100.00;100606.50;5057168;28;20452;-80
2021/07/19 04:00:29;;;;;;;0.57;0.57;;;;;;;16.72;100.00;100607.69;5022661;28;20499;-80
2021/07/19 04:02:57;;;;;;;0.40;0.20;;;;;;;16.92;100.00;100613.88;5026409;28;20810;-80
2021/07/19 04:05:25;;;;;;;0.40;0.20;;;;;;;16.91;100.00;100613.00;5029967;28;20452;-80
2021/07/19 04:07:52;;;;;;;0.53;0.53;;;;;;;17.04;100.00;100605.22;5019762;28;20464;-80
2021/07/19 04:10:20;;;;;;;0.50;0.40;;;;;;;17.18;100.00;100611.63;5024920;28;20483;-79
2021/07/19 04:12:50;;;;;;;0.40;0.20;;;;;;;16.98;100.00;100609.06;5023947;28;20463;-79
2021/07/19 04:15:18;;;;;;;0.80;0.73;;;;;;;16.97;100.00;100610.00;5049761;28;20527;-79
2021/07/19 04:17:46;;;;;;;0.50;0.50;;;;;;;17.04;100.00;100622.19;5033203;28;20440;-79
2021/07/19 04:20:14;;;;;;;0.40;0.20;;;;;;;16.99;100.00;100608.09;5047138;28;20471;-79
2021/07/19 04:22:43;;;;;;;0.50;0.50;;;;;;;16.96;100.00;100613.63;5027943;28;20488;-78
2021/07/19 04:25:13;;;;;;;0.40;0.20;;;;;;;16.95;100.00;100625.31;5028116;28;20470;-80
2021/07/19 04:27:42;;;;;;;0.50;0.30;;;;;;;17.05;100.00;100617.69;5020491;28;20456;-78
2021/07/19 04:30:11;;;;;;;0.40;0.20;;;;;;;17.24;100.00;100633.75;5025843;28;20468;-79
2021/07/19 04:32:45;;;;;;;0.40;0.20;;;;;;;17.29;100.00;100620.97;5029827;28;20444;-79
2021/07/19 04:35:17;;;;;;;0.40;0.20;;;;;;;17.46;100.00;100631.72;5024695;28;20456;-79
2021/07/19 04:37:45;;;;;;;0.40;0.20;;;;;;;17.52;100.00;100626.00;5027708;28;20449;-79
2021/07/19 04:40:12;;;;;;;0.73;0.73;;;;;;;17.57;100.00;100620.41;5025418;28;20483;-78
2021/07/19 04:42:39;;;;;;;19.93;3.03;;;;;;;17.84;100.00;100620.81;5049514;28;20495;-79
2021/07/19 04:45:07;;;;;;;0.40;0.30;;;;;;;18.71;100.00;100626.78;5023350;28;20457;-79
2021/07/19 04:47:34;;;;;;;0.40;0.20;;;;;;;19.36;100.00;100620.25;5026491;28;20942;-79
2021/07/19 04:50:02;;;;;;;0.40;0.30;;;;;;;20.07;100.00;100624.94;5057920;28;20471;-79
2021/07/19 04:52:29;;;;;;;0.40;0.20;;;;;;;20.57;98.12;100624.47;5040578;28;20436;-79
2021/07/19 04:54:58;;;;;;;0.40;0.20;;;;;;;20.95;96.40;100621.94;5033951;28;20617;-79
2021/07/19 04:57:26;;;;;;;0.40;0.30;;;;;;;21.50;93.43;100629.06;5020644;28;20984;-79
2021/07/19 04:59:55;;;;;;;1.27;1.27;;;;;;;21.50;93.18;100620.06;5022782;28;20464;-79
2021/07/19 05:02:26;;;;;;;0.40;0.20;;;;;;;21.81;91.72;100618.84;5066281;28;20964;-78
2021/07/19 05:04:55;;;;;;;0.60;0.50;;;;;;;21.97;91.77;100630.31;5050339;28;20474;-79
2021/07/19 05:07:25;;;;;;;0.40;0.20;;;;;;;22.07;92.00;100633.28;5055790;28;20517;-78
2021/07/19 05:09:53;;;;;;;1.33;1.27;;;;;;;22.39;90.20;100620.13;5037522;28;20463;-80
2021/07/19 05:12:22;;;;;;;0.40;0.30;;;;;;;22.51;89.90;100624.66;5030035;28;20570;-79
2021/07/19 05:14:49;;;;;;;0.40;0.20;;;;;;;23.18;87.53;100624.25;5026601;28;20848;-79
2021/07/19 05:17:16;;;;;;;0.40;0.20;;;;;;;23.06;86.89;100620.59;5031758;28;20468;-80
2021/07/19 05:19:44;;;;;;;0.40;0.20;;;;;;;23.21;86.20;100624.88;5034372;28;20454;-79
2021/07/19 05:22:15;;;;;;;0.40;0.30;;;;;;;23.20;86.91;100624.97;5031166;28;20493;-80
2021/07/19 05:24:43;;;;;;;0.40;0.20;;;;;;;23.37;87.00;100626.41;5033720;28;20497;-79
2021/07/19 05:27:11;;;;;;;0.50;0.40;;;;;;;23.72;85.11;100629.16;5031137;28;20426;-80
2021/07/19 05:29:40;;;;;;;0.40;0.20;;;;;;;23.89;83.84;100625.97;5039537;28;20446;-80
2021/07/19 05:32:08;;;;;;;0.40;0.20;;;;;;;24.51;82.48;100634.53;5029919;28;20453;-80
2021/07/19 05:34:35;;;;;;;2.30;1.57;;;;;;;24.18;83.41;100645.41;5068597;28;20437;-79
2021/07/19 05:37:03;;;;;;;0.40;0.30;;;;;;;24.12;83.15;100638.63;5054328;28;20470;-79
2021/07/19 05:39:30;;;;;;;0.40;0.30;;;;;;;24.34;81.81;100639.63;5032370;28;20475;-80
2021/07/19 05:41:57;;;;;;;0.40;0.27;;;;;;;24.14;83.46;100641.22;5029344;28;20483;-80
2021/07/19 05:44:24;;;;;;;0.50;0.40;;;;;;;24.59;81.70;100635.78;5025722;28;20459;-80
2021/07/19 05:46:50;;;;;;;0.40;0.27;;;;;;;24.31;81.86;100643.47;5053594;28;20871;-80
2021/07/19 05:49:17;;;;;;;0.40;0.30;;;;;;;24.45;81.54;100639.63;5024543;28;20444;-79
2021/07/19 05:51:44;;;;;;;0.60;0.53;;;;;;;24.92;79.07;100638.44;5036865;28;20932;-79
2021/07/19 05:54:11;;;;;;;0.67;0.57;;;;;;;24.92;79.55;100641.16;5025580;28;20418;-79
2021/07/19 05:56:37;;;;;;;0.50;0.30;;;;;;;25.06;78.83;100642.78;5037363;28;20448;-80
2021/07/19 05:59:04;;;;;;;0.43;0.30;;;;;;;24.59;80.32;100636.66;5038231;28;20442;-79
2021/07/19 06:01:30;;;;;;;0.53;0.53;;;;;;;25.17;78.82;100631.84;5037406;28;20463;-79
2021/07/19 06:03:59;;;;;;;0.50;0.30;;;;;;;24.56;81.59;100636.91;5025025;28;20446;-79
2021/07/19 06:06:27;;;;;;;0.40;0.30;;;;;;;25.29;78.44;100627.25;5025883;28;20549;-79
2021/07/19 06:08:54;;;;;;;0.40;0.30;;;;;;;25.22;78.47;100637.78;5071134;28;20438;-79
2021/07/19 06:11:20;;;;;;;1.30;1.30;;;;;;;25.34;78.30;100634.00;5026938;28;20439;-79
2021/07/19 06:13:47;;;;;;;0.50;0.50;;;;;;;25.25;78.04;100634.81;5071586;28;20811;-79
2021/07/19 06:16:14;;;;;;;2.83;2.63;;;;;;;25.49;76.91;100633.69;5026585;28;20870;-79
2021/07/19 06:18:41;;;;;;;0.40;0.30;;;;;;;25.93;74.84;100627.19;5030651;28;20483;-79
2021/07/19 06:21:07;;;;;;;0.77;0.77;;;;;;;25.46;76.64;100629.38;5064269;28;20439;-79
2021/07/19 06:23:34;;;;;;;0.60;0.57;;;;;;;25.99;75.34;100632.09;5031615;28;20554;-80
2021/07/19 06:26:01;;;;;;;0.50;0.30;;;;;;;25.01;79.40;100636.88;5063010;28;20471;-79
2021/07/19 06:28:28;;;;;;;0.50;0.30;;;;;;;24.98;79.08;100639.81;5025387;28;20414;-79
2021/07/19 06:30:54;;;;;;;5.27;1.30;;;;;;;24.84;79.59;100635.50;5025280;28;20462;-79
2021/07/19 06:33:21;;;;;;;1.00;1.00;;;;;;;25.01;78.60;100637.72;5029363;28;20444;-80
2021/07/19 06:35:48;;;;;;;0.43;0.30;;;;;;;25.13;77.96;100630.41;5051449;28;20514;-79
2021/07/19 06:38:14;;;;;;;0.40;0.30;;;;;;;25.27;80.09;100626.50;5029006;28;20456;-80
2021/07/19 06:40:41;;;;;;;0.40;0.30;;;;;;;25.28;78.58;100630.97;5061713;28;20442;-80
2021/07/19 06:43:08;;;;;;;1.93;0.67;;;;;;;25.73;76.51;100622.59;5057164;28;20895;-80
2021/07/19 06:45:34;;;;;;;0.50;0.50;;;;;;;25.62;77.06;100632.50;5024398;28;20427;-79
2021/07/19 06:48:01;;;;;;;0.50;0.30;;;;;;;25.90;76.20;100631.03;5029000;28;20423;-79
2021/07/19 06:50:28;;;;;;;0.40;0.30;;;;;;;26.17;75.65;100627.72;5032064;28;20475;-79
2021/07/19 06:52:54;;;;;;;0.40;0.30;;;;;;;26.16;76.97;100630.59;5027723;28;20423;-79
2021/07/19 06:55:21;;;;;;;0.40;0.30;;;;;;;25.61;76.48;100627.19;5062490;28;20851;-79
2021/07/19 06:57:48;;;;;;;0.60;0.40;;;;;;;25.83;77.36;100621.66;5057226;28;20468;-79
2021/07/19 07:00:14;;;;;;;0.50;0.40;;;;;;;25.77;76.64;100635.84;5035066;28;20473;-79
2021/07/19 07:02:41;;;;;;;1.33;1.13;;;;;;;25.79;75.03;100624.81;5024812;28;20459;-79
2021/07/19 07:05:08;;;;;;;0.40;0.20;;;;;;;25.52;77.83;100628.00;5022964;28;20428;-79
2021/07/19 07:07:35;;;;;;;0.40;0.30;;;;;;;25.78;78.63;100632.13;5029723;28;20419;-80
2021/07/19 07:10:03;;;;;;;0.50;0.50;;;;;;;24.99;78.54;100628.81;5042663;28;20471;-79
2021/07/19 07:12:30;;;;;;;2.50;2.10;;;;;;;25.52;78.38;100628.88;5035659;28;20414;-79
2021/07/19 07:14:57;;;;;;;0.80;0.80;;;;;;;25.07;78.10;100620.00;5025775;28;20475;-79
2021/07/19 07:17:23;;;;;;;0.40;0.23;;;;;;;24.68;79.95;100626.91;5023505;28;20481;-78
2021/07/19 07:19:51;;;;;;;3.80;1.43;;;;;;;24.83;79.54;100620.19;5032791;28;20848;-78
2021/07/19 07:22:18;;;;;;;0.40;0.30;;;;;;;25.21;77.86;100625.16;5066012;28;20461;-78
2021/07/19 07:24:45;;;;;;;0.57;0.57;;;;;;;25.01;79.92;100621.41;5048928;28;20960;-78
2021/07/19 07:27:12;;;;;;;0.50;0.30;;;;;;;24.64;79.33;100630.84;5065555;28;21001;-78
2021/07/19 07:29:39;;;;;;;0.50;0.30;;;;;;;25.22;79.10;100617.84;5019997;28;20446;-79
2021/07/19 07:32:07;;;;;;;1.10;1.10;;;;;;;23.83;83.05;100619.16;5023812;28;20415;-78
2021/07/19 07:34:35;;;;;;;0.40;0.30;;;;;;;24.33;81.30;100629.75;5027584;28;20459;-78
2021/07/19 07:37:02;;;;;;;0.50;0.30;;;;;;;24.58;79.87;100615.91;5025671;28;20426;-78
2021/07/19 07:39:29;;;;;;;0.50;0.30;;;;;;;24.81;79.99;100619.47;5020662;28;20514;-78
2021/07/19 07:41:56;;;;;;;0.50;0.30;;;;;;;24.88;78.14;100612.50;5023133;28;20448;-78
2021/07/19 07:44:22;;;;;;;0.50;0.30;;;;;;;24.72;78.84;100614.78;5025785;28;20457;-78
2021/07/19 07:46:49;;;;;;;0.40;0.30;;;;;;;24.63;78.36;100618.22;5056993;28;20430;-79
2021/07/19 07:49:16;;;;;;;0.47;0.30;;;;;;;24.69;80.30;100629.50;5019958;28;20434;-79
2021/07/19 07:51:43;;;;;;;0.50;0.40;;;;;;;24.84;81.86;100629.22;5043691;28;20418;-78
2021/07/19 07:54:10;;;;;;;0.50;0.30;;;;;;;24.46;82.65;100627.78;5065588;28;20839;-79
2021/07/19 07:56:36;;;;;;;0.90;0.90;;;;;;;24.32;81.64;100625.31;5020975;28;20430;-79
2021/07/19 07:59:23;;;;;;;0.50;0.37;;;;;;;24.09;82.03;100627.09;5048059;28;20438;-78
2021/07/19 08:01:50;;;;;;;0.40;0.27;;;;;;;23.67;81.80;100629.50;5047171;28;20463;-78
2021/07/19 08:04:16;;;;;;;0.70;0.50;;;;;;;23.82;81.41;100628.28;5013590;28;21027;-78
2021/07/19 08:06:44;;;;;;;0.40;0.27;;;;;;;23.70;81.33;100640.09;5058310;28;20445;-78
2021/07/19 08:09:11;;;;;;;0.70;0.70;;;;;;;23.63;82.65;100630.72;5053465;28;20941;-78
2021/07/19 08:11:38;;;;;;;2.50;0.73;;;;;;;23.87;81.99;100625.25;5019831;28;20459;-79
2021/07/19 08:14:04;;;;;;;0.40;0.20;;;;;;;24.16;79.28;100628.34;5024748;28;20443;-78
2021/07/19 08:16:36;;;;;;;0.63;0.63;;;;;;;24.02;80.37;100623.16;5029727;28;20456;-80
2021/07/19 08:19:04;;;;;;;0.50;0.30;;;;;;;23.97;80.39;100622.63;5022790;28;20904;-78
2021/07/19 08:21:31;;;;;;;4.53;1.13;;;;;;;24.58;76.50;100625.91;5059340;28;20445;-78
2021/07/19 08:23:59;;;;;;;0.40;0.30;;;;;;;24.73;76.72;100614.63;5023839;28;20470;-78
2021/07/19 08:26:26;;;;;;;0.40;0.30;;;;;;;25.26;74.60;100614.75;5016713;28;20841;-78
2021/07/19 08:28:54;;;;;;;0.40;0.20;;;;;;;25.22;74.77;100612.41;5024481;28;20488;-78
2021/07/19 08:31:22;;;;;;;1.80;0.50;;;;;;;25.65;74.46;100607.75;5019258;28;20521;-78
2021/07/19 08:33:49;;;;;;;0.40;0.30;;;;;;;25.74;74.32;100610.69;5022900;28;20438;-78
2021/07/19 08:36:16;;;;;;;0.60;0.60;;;;;;;25.82;73.36;100613.63;5063545;28;20473;-78
2021/07/19 08:38:43;;;;;;;0.40;0.40;;;;;;;25.62;73.18;100610.72;5034509;28;20418;-78
2021/07/19 08:41:09;;;;;;;0.40;0.20;;;;;;;26.16;71.77;100608.78;5018768;28;20509;-78
2021/07/19 08:43:38;;;;;;;0.50;0.40;;;;;;;25.72;73.34;100607.25;5024823;28;20484;-78
2021/07/19 08:46:06;;;;;;;0.40;0.20;;;;;;;25.99;72.48;100600.25;5067403;28;20449;-78
2021/07/19 08:48:34;;;;;;;0.40;0.20;;;;;;;26.01;71.67;100594.66;5024763;28;20478;-78
2021/07/19 08:51:04;;;;;;;0.40;0.30;;;;;;;25.17;73.08;100606.50;5033423;28;20481;-78
2021/07/19 08:53:36;;;;;;;0.40;0.30;;;;;;;25.15;71.44;100597.63;5069021;28;20448;-78
2021/07/19 08:56:07;;;;;;;1.27;1.27;;;;;;;25.22;71.01;100587.91;5052941;28;20420;-78
2021/07/19 08:58:35;;;;;;;1.60;1.50;;;;;;;24.87;74.68;100599.91;5022630;28;20429;-78
2021/07/19 09:01:02;;;;;;;0.40;0.23;;;;;;;24.48;75.76;100594.03;5024240;28;20458;-78
2021/07/19 09:03:30;;;;;;;0.63;0.63;;;;;;;24.81;73.70;100594.97;5022162;28;20454;-78
2021/07/19 09:05:57;;;;;;;1.70;0.50;;;;;;;25.73;71.52;100584.47;5028917;28;20942;-78
2021/07/19 09:08:24;;;;;;;0.83;0.83;;;;;;;25.94;70.91;100579.88;5061886;28;20767;-78
2021/07/19 09:10:51;;;;;;;2.47;0.80;;;;;;;25.36;72.30;100596.66;5056157;28;20450;-78
2021/07/19 09:13:21;;;;;;;0.50;0.30;;;;;;;25.41;72.72;100593.53;5034773;28;20422;-78
2021/07/19 09:15:57;;;;;;;0.40;0.20;;;;;;;25.24;70.50;100592.25;5025830;28;20825;-78
2021/07/19 09:18:24;;;;;;;3.13;0.60;;;;;;;25.51;72.41;100590.91;5023340;28;20418;-78
2021/07/19 09:20:52;;;;;;;0.40;0.30;;;;;;;26.04;70.62;100586.25;5045932;28;20474;-78
2021/07/19 09:23:29;;;;;;;0.40;0.20;;;;;;;25.97;71.56;100580.47;5054881;28;20507;-78
2021/07/19 09:25:57;;;;;;;0.50;0.47;;;;;;;25.48;70.85;100586.56;5023442;28;20438;-78
2021/07/19 09:28:29;;;;;;;0.40;0.20;;;;;;;25.76;71.18;100578.75;5015752;28;20426;-78
2021/07/19 09:31:07;;;;;;;4.30;1.87;;;;;;;25.41;73.14;100582.66;5028200;28;20592;-78
2021/07/19 09:33:35;;;;;;;0.40;0.30;;;;;;;25.65;69.51;100571.50;5024231;28;20909;-78
2021/07/19 09:36:03;;;;;;;1.73;0.63;;;;;;;25.44;72.35;100578.78;5021617;28;20454;-78
2021/07/19 09:38:30;;;;;;;0.40;0.30;;;;;;;25.83;69.62;100571.78;5025304;28;20431;-78
2021/07/19 09:41:00;;;;;;;3.60;1.30;;;;;;;25.77;67.77;100569.56;5028095;28;20461;-78
2021/07/19 09:43:30;;;;;;;3.80;1.07;;;;;;;25.70;67.84;100561.09;5025267;28;20490;-78
2021/07/19 09:46:00;;;;;;;0.50;0.30;;;;;;;26.24;68.00;100565.38;5021525;28;20558;-78
2021/07/19 09:48:27;;;;;;;0.50;0.33;;;;;;;26.11;66.96;100562.88;5024086;28;20423;-78
2021/07/19 09:50:54;;;;;;;0.50;0.43;;;;;;;25.43;68.54;100563.47;5033732;28;20537;-78
2021/07/19 09:53:31;;;;;;;0.93;0.93;;;;;;;26.29;66.49;100571.25;5023564;28;20529;-78
2021/07/19 09:56:16;;;;;;;0.93;0.93;;;;;;;26.18;69.51;100569.53;5029761;28;20453;-78
2021/07/19 09:58:47;;;;;;;0.60;0.60;;;;;;;26.34;66.82;100566.28;5031285;28;20463;-78
2021/07/19 10:01:31;;;;;;;0.40;0.27;;;;;;;26.32;64.44;100568.28;5026484;28;20463;-78
2021/07/19 10:04:09;;;;;;;1.27;1.17;;;;;;;25.91;66.17;100569.25;5028681;28;20975;-78
2021/07/19 10:06:37;;;;;;;1.13;0.67;;;;;;;26.06;67.27;100562.44;5027665;28;20530;-78
2021/07/19 10:09:11;;;;;;;0.70;0.70;;;;;;;25.64;71.61;100562.47;5051035;28;20456;-78
2021/07/19 10:11:41;;;;;;;0.40;0.27;;;;;;;25.75;71.18;100553.38;5034339;28;20995;-78
2021/07/19 10:14:08;;;;;;;0.40;0.20;;;;;;;25.79;69.07;100565.75;5023700;28;20418;-77
2021/07/19 10:16:37;;;;;;;0.40;0.30;;;;;;;26.46;67.81;100559.75;5020704;28;20922;-78
2021/07/19 10:19:08;;;;;;;0.80;0.63;;;;;;;26.79;66.75;100560.38;5050478;28;20435;-78
2021/07/19 10:21:35;;;;;;;0.50;0.50;;;;;;;26.59;66.73;100554.03;5041677;28;20532;-78
2021/07/19 10:24:09;;;;;;;0.50;0.30;;;;;;;27.10;66.81;100547.50;5026642;28;20470;-78
2021/07/19 10:26:39;;;;;;;0.40;0.30;;;;;;;26.86;65.36;100551.50;5017436;28;20416;-78
2021/07/19 10:29:06;;;;;;;1.83;0.73;;;;;;;26.78;66.77;100559.53;5059549;28;20868;-78
2021/07/19 10:31:35;;;;;;;0.50;0.40;;;;;;;27.01;65.29;100554.72;5050319;28;20960;-78
2021/07/19 10:34:04;;;;;;;1.47;0.80;;;;;;;26.26;68.45;100552.47;5023453;28;20484;-78
2021/07/19 10:36:31;;;;;;;0.50;0.30;;;;;;;26.23;69.21;100550.88;5028913;28;20441;-78
2021/07/19 10:39:20;;;;;;;0.50;0.30;;;;;;;26.38;67.26;100545.94;5026867;28;20463;-78
2021/07/19 10:41:59;;;;;;;0.60;0.60;;;;;;;26.55;66.02;100538.94;5014477;28;20453;-78
2021/07/19 10:44:28;;;;;;;0.50;0.50;;;;;;;26.81;65.59;100539.28;5065277;28;20924;-78
2021/07/19 10:46:57;;;;;;;0.83;0.83;;;;;;;26.00;68.58;100543.91;5035239;28;20434;-78
2021/07/19 10:49:38;;;;;;;0.50;0.50;;;;;;;26.18;67.35;100545.00;5021409;28;20447;-78
2021/07/19 10:52:09;;;;;;;36.87;2.00;;;;;;;26.31;66.21;100543.88;5029810;28;20444;-78
2021/07/19 10:54:49;;;;;;;1.03;1.03;;;;;;;25.32;69.73;100543.47;5022672;28;20455;-78
2021/07/19 10:57:17;;;;;;;0.50;0.30;;;;;;;25.32;71.63;100540.75;5066807;28;20447;-78
2021/07/19 11:00:07;;;;;;;0.40;0.30;;;;;;;25.73;70.06;100533.59;5023756;28;20532;-78
2021/07/19 11:02:34;;;;;;;0.50;0.50;;;;;;;26.53;66.53;100530.91;5034101;28;21013;-78
2021/07/19 11:05:02;;;;;;;0.50;0.40;;;;;;;26.56;65.87;100533.34;5015783;28;20953;-78
2021/07/19 11:07:39;;;;;;;0.77;0.77;;;;;;;26.39;63.98;100530.44;5025670;28;20834;-78
2021/07/19 11:10:20;;;;;;;0.50;0.40;;;;;;;26.85;63.15;100538.84;5062537;28;20467;-78
2021/07/19 11:12:52;;;;;;;0.40;0.30;;;;;;;26.63;64.85;100544.56;5022047;28;20448;-78
2021/07/19 11:15:21;;;;;;;0.40;0.30;;;;;;;26.89;63.88;100533.97;5026566;28;20448;-78
2021/07/19 11:17:49;;;;;;;0.50;0.30;;;;;;;26.90;64.77;100535.72;5026033;28;20527;-78
2021/07/19 11:20:17;;;;;;;0.40;0.30;;;;;;;26.97;63.47;100536.84;5020041;28;20446;-78
2021/07/19 11:22:44;;;;;;;0.40;0.30;;;;;;;27.29;61.52;100536.59;5021274;28;20445;-78
2021/07/19 11:25:14;;;;;;;0.50;0.30;;;;;;;27.57;61.85;100528.50;5026263;28;20452;-78
2021/07/19 11:27:43;;;;;;;0.40;0.30;;;;;;;26.51;65.11;100527.47;5015541;28;20437;-78
2021/07/19 11:30:23;;;;;;;0.50;0.30;;;;;;;26.10;64.20;100523.00;5033323;28;20454;-78